createdAt,value
2019-02-28T00:09:29.068Z,12.73
2019-02-28T00:11:57.463Z,12.80
2019-02-28T00:14:27.742Z,13.17
2019-02-28T00:16:56.408Z,20.17
2019-02-28T00:19:25.043Z,12.53
2019-02-28T00:21:53.453Z,13.37
2019-02-28T00:24:21.840Z,14.20
2019-02-28T00:26:50.243Z,12.87
2019-02-28T00:29:18.640Z,14.87
2019-02-28T00:31:50.034Z,13.90
2019-02-28T00:34:17.372Z,14.67
2019-02-28T00:36:45.776Z,13.47
2019-02-28T00:39:14.167Z,13.67
2019-02-28T00:41:44.488Z,13.80
2019-02-28T00:44:12.677Z,13.77
2019-02-28T00:46:45.171Z,14.10
2019-02-28T00:49:11.281Z,14.60
2019-02-28T00:51:39.740Z,15.90
2019-02-28T00:54:08.854Z,14.40
2019-02-28T00:56:37.827Z,16.17
2019-02-28T00:59:06.206Z,16.50
2019-02-28T01:01:34.830Z,14.80
2019-02-28T01:04:03.216Z,15.03
2019-02-28T01:06:31.612Z,14.60
2019-02-28T01:09:00.005Z,17.00
2019-02-28T01:11:28.404Z,15.03
2019-02-28T01:13:58.059Z,15.13
2019-02-28T01:16:27.134Z,14.90
2019-02-28T01:18:55.549Z,14.23
2019-02-28T01:21:24.588Z,15.90
2019-02-28T01:23:52.906Z,16.13
2019-02-28T01:26:21.304Z,18.10
2019-02-28T01:28:49.762Z,16.30
2019-02-28T01:31:18.154Z,15.93
2019-02-28T01:33:46.782Z,18.00
2019-02-28T01:36:15.637Z,16.07
2019-02-28T01:38:44.651Z,19.00
2019-02-28T01:41:13.255Z,16.60
2019-02-28T01:43:41.658Z,16.13
2019-02-28T01:46:10.041Z,15.23
2019-02-28T01:48:38.445Z,16.23
2019-02-28T01:51:06.837Z,16.37
2019-02-28T01:53:35.252Z,17.20
2019-02-28T01:56:03.648Z,16.53
2019-02-28T01:58:32.036Z,18.03
2019-02-28T02:01:00.436Z,18.80
2019-02-28T02:03:28.819Z,17.10
2019-02-28T02:05:57.237Z,19.67
2019-02-28T02:08:25.626Z,16.77
2019-02-28T02:10:55.861Z,18.77
2019-02-28T02:13:24.754Z,17.13
2019-02-28T02:15:53.142Z,17.63
2019-02-28T02:18:21.547Z,16.50
2019-02-28T02:20:49.940Z,25.23
2019-02-28T02:23:18.931Z,19.43
2019-02-28T02:25:47.408Z,16.20
2019-02-28T02:28:15.791Z,22.37
2019-02-28T02:30:50.479Z,20.30
2019-02-28T02:33:15.579Z,22.73
2019-02-28T02:35:44.234Z,17.20
2019-02-28T02:38:12.596Z,19.73
2019-02-28T02:40:40.994Z,18.00
2019-02-28T02:43:09.469Z,18.00
2019-02-28T02:45:41.876Z,20.30
2019-02-28T02:48:08.189Z,19.17
2019-02-28T02:50:36.842Z,18.63
2019-02-28T02:53:06.563Z,20.87
2019-02-28T02:55:35.057Z,18.50
2019-02-28T02:58:03.684Z,21.50
2019-02-28T03:00:32.070Z,20.10
2019-02-28T03:03:00.740Z,18.23
2019-02-28T03:05:34.983Z,21.93
2019-02-28T03:07:59.872Z,28.10
2019-02-28T03:10:29.435Z,22.93
2019-02-28T03:12:57.833Z,20.77
2019-02-28T03:15:27.312Z,19.93
2019-02-28T03:17:56.095Z,23.30
2019-02-28T03:20:24.491Z,23.13
2019-02-28T03:22:52.895Z,22.13
2019-02-28T03:25:27.700Z,22.00
2019-02-28T03:27:56.450Z,24.70
2019-02-28T03:30:29.255Z,24.83
2019-02-28T03:32:52.110Z,24.33
2019-02-28T03:35:20.860Z,19.63
2019-02-28T03:37:49.318Z,23.43
2019-02-28T03:40:17.794Z,23.87
2019-02-28T03:42:46.178Z,21.17
2019-02-28T03:45:16.315Z,22.90
2019-02-28T03:47:44.698Z,21.30
2019-02-28T03:50:13.778Z,20.80
2019-02-28T03:52:44.310Z,24.80
2019-02-28T03:55:13.906Z,26.90
2019-02-28T03:57:42.336Z,22.30
2019-02-28T04:00:16.589Z,26.77
2019-02-28T04:02:45.180Z,23.93
2019-02-28T04:05:13.583Z,26.73
2019-02-28T04:07:41.961Z,26.93
2019-02-28T04:10:16.843Z,26.43
2019-02-28T04:12:45.929Z,29.37
2019-02-28T04:15:15.289Z,26.77
2019-02-28T04:17:43.693Z,28.40
2019-02-28T04:20:12.109Z,28.30
2019-02-28T04:22:40.762Z,27.73
2019-02-28T04:25:10.909Z,27.17
2019-02-28T04:27:40.404Z,26.97
2019-02-28T04:30:13.308Z,34.30
2019-02-28T04:32:42.035Z,28.10
2019-02-28T04:35:11.059Z,25.27
2019-02-28T04:37:44.926Z,26.60
2019-02-28T04:40:11.541Z,28.97
2019-02-28T04:42:40.493Z,29.40
2019-02-28T04:45:12.024Z,26.13
2019-02-28T04:47:41.566Z,26.20
2019-02-28T04:50:11.866Z,26.43
2019-02-28T04:52:46.493Z,27.43
2019-02-28T04:55:11.414Z,29.00
2019-02-28T04:57:39.796Z,25.37
2019-02-28T05:00:13.379Z,30.30
2019-02-28T05:02:41.959Z,30.30
2019-02-28T05:05:12.766Z,28.00
2019-02-28T05:07:41.474Z,30.40
2019-02-28T05:10:11.344Z,39.10
2019-02-28T05:12:41.033Z,27.37
2019-02-28T05:15:11.821Z,31.87
2019-02-28T05:17:40.310Z,31.20
2019-02-28T05:20:10.821Z,28.53
2019-02-28T05:22:40.465Z,29.77
2019-02-28T05:25:10.187Z,44.70
2019-02-28T05:27:38.584Z,34.33
2019-02-28T05:30:18.037Z,30.90
2019-02-28T05:32:44.835Z,31.80
2019-02-28T05:35:13.620Z,34.13
2019-02-28T05:37:46.714Z,37.43
2019-02-28T05:40:15.094Z,32.00
2019-02-28T05:42:43.562Z,42.70
2019-02-28T05:45:14.927Z,32.07
2019-02-28T05:47:46.653Z,34.80
2019-02-28T05:50:16.795Z,35.63
2019-02-28T05:52:43.489Z,40.13
2019-02-28T05:55:11.972Z,41.23
2019-02-28T05:57:43.431Z,37.00
2019-02-28T06:00:16.622Z,39.23
2019-02-28T06:02:45.022Z,33.10
2019-02-28T06:05:13.743Z,39.40
2019-02-28T06:07:42.519Z,35.60
2019-02-28T06:10:13.486Z,39.30
2019-02-28T06:12:43.923Z,43.43
2019-02-28T06:15:16.307Z,36.00
2019-02-28T06:17:44.726Z,38.17
2019-02-28T06:20:16.339Z,35.90
2019-02-28T06:22:44.358Z,34.60
2019-02-28T06:25:22.611Z,37.77
2019-02-28T06:27:49.129Z,47.53
2019-02-28T06:30:17.993Z,42.97
2019-02-28T06:32:46.472Z,52.67
2019-02-28T06:35:17.668Z,41.23
2019-02-28T06:37:45.438Z,40.40
2019-02-28T06:40:17.350Z,42.67
2019-02-28T06:42:46.729Z,44.73
2019-02-28T06:45:17.627Z,44.20
2019-02-28T06:47:49.629Z,42.80
2019-02-28T06:50:17.163Z,39.40
2019-02-28T06:52:45.574Z,41.70
2019-02-28T06:55:18.800Z,42.73
2019-02-28T06:57:47.298Z,46.53
2019-02-28T07:00:16.792Z,42.20
2019-02-28T07:02:45.187Z,40.87
2019-02-28T07:05:13.594Z,46.10
2019-02-28T07:07:42.000Z,44.37
2019-02-28T07:10:15.357Z,43.23
2019-02-28T07:12:43.991Z,46.60
2019-02-28T07:15:13.134Z,45.60
2019-02-28T07:17:42.719Z,44.80
2019-02-28T07:20:19.103Z,45.80
2019-02-28T07:22:47.575Z,50.53
2019-02-28T07:25:16.205Z,48.17
2019-02-28T07:27:44.921Z,48.67
2019-02-28T07:30:21.320Z,47.37
2019-02-28T07:32:49.811Z,52.60
2019-02-28T07:35:18.195Z,50.73
2019-02-28T07:37:46.952Z,50.80
2019-02-28T07:40:19.145Z,49.03
2019-02-28T07:42:47.554Z,51.50
2019-02-28T07:45:16.508Z,50.60
2019-02-28T07:47:45.160Z,52.27
2019-02-28T07:50:15.058Z,53.20
2019-02-28T07:52:43.456Z,51.30
2019-02-28T07:55:16.192Z,59.87
2019-02-28T07:57:44.646Z,52.03
2019-02-28T08:00:18.925Z,56.23
2019-02-28T08:02:47.589Z,53.03
2019-02-28T08:05:16.307Z,57.30
2019-02-28T08:07:50.484Z,58.07
2019-02-28T08:10:18.082Z,55.63
2019-02-28T08:12:46.769Z,49.13
2019-02-28T08:15:22.310Z,53.27
2019-02-28T08:17:51.124Z,52.20
2019-02-28T08:20:20.645Z,58.40
2019-02-28T08:22:49.221Z,54.63
2019-02-28T08:25:17.639Z,49.00
2019-02-28T08:27:46.366Z,48.53
2019-02-28T08:30:20.751Z,52.53
2019-02-28T08:32:49.805Z,51.27
2019-02-28T08:35:18.210Z,55.83
2019-02-28T08:37:46.958Z,51.87
2019-02-28T08:40:18.132Z,47.97
2019-02-28T08:42:46.711Z,56.70
2019-02-28T08:45:18.242Z,52.70
2019-02-28T08:47:46.638Z,54.03
2019-02-28T08:50:20.635Z,54.13
2019-02-28T08:52:51.208Z,50.10
2019-02-28T08:55:28.139Z,50.87
2019-02-28T08:57:55.719Z,50.13
2019-02-28T09:00:22.207Z,52.27
2019-02-28T09:02:52.896Z,58.10
2019-02-28T09:05:25.502Z,54.70
2019-02-28T09:07:52.071Z,51.57
2019-02-28T09:10:22.795Z,48.73
2019-02-28T09:12:51.245Z,53.57
2019-02-28T09:15:20.882Z,54.17
2019-02-28T09:17:49.988Z,48.67
2019-02-28T09:20:18.567Z,43.73
2019-02-28T09:22:46.964Z,48.20
2019-02-28T09:25:22.096Z,46.93
2019-02-28T09:27:50.255Z,50.67
2019-02-28T09:30:30.689Z,45.83
2019-02-28T09:32:59.713Z,46.17
2019-02-28T09:35:28.102Z,49.27
2019-02-28T09:37:56.556Z,45.60
2019-02-28T09:40:25.816Z,43.83
2019-02-28T09:42:55.082Z,49.77
2019-02-28T09:45:29.252Z,47.40
2019-02-28T09:48:00.746Z,43.60
2019-02-28T09:50:28.231Z,47.67
2019-02-28T09:52:56.676Z,46.13
2019-02-28T09:55:25.113Z,43.60
2019-02-28T09:57:54.958Z,52.23
2019-02-28T10:00:28.050Z,48.00
2019-02-28T10:02:56.518Z,49.77
2019-02-28T10:05:25.247Z,50.80
2019-02-28T10:07:53.699Z,48.47
2019-02-28T10:10:24.281Z,50.00
2019-02-28T10:12:52.661Z,48.43
2019-02-28T10:15:23.064Z,51.17
2019-02-28T10:17:52.241Z,48.37
2019-02-28T10:20:27.061Z,51.90
2019-02-28T10:22:53.555Z,48.53
2019-02-28T10:25:22.211Z,52.90
2019-02-28T10:27:50.978Z,52.30
2019-02-28T10:30:31.175Z,51.80
2019-02-28T10:32:54.811Z,49.27
2019-02-28T10:35:23.494Z,45.27
2019-02-28T10:37:57.325Z,50.93
2019-02-28T10:40:25.401Z,53.07
2019-02-28T10:42:53.795Z,50.47
2019-02-28T10:45:23.458Z,55.67
2019-02-28T10:47:52.145Z,52.60
2019-02-28T10:50:26.007Z,53.77
2019-02-28T10:52:54.644Z,53.67
2019-02-28T10:55:23.361Z,51.00
2019-02-28T10:57:52.626Z,53.47
2019-02-28T11:00:29.422Z,52.03
2019-02-28T11:02:59.625Z,49.13
2019-02-28T11:05:32.917Z,52.00
2019-02-28T11:08:02.628Z,56.67
2019-02-28T11:10:37.765Z,56.57
2019-02-28T11:13:15.509Z,51.30
2019-02-28T11:15:48.027Z,58.00
2019-02-28T11:18:15.210Z,59.60
2019-02-28T11:20:43.859Z,59.70
2019-02-28T11:23:14.973Z,57.60
2019-02-28T11:25:43.296Z,50.80
2019-02-28T11:28:12.578Z,55.30
2019-02-28T11:30:44.800Z,52.80
2019-02-28T11:33:13.356Z,51.63
2019-02-28T11:35:42.097Z,49.73
2019-02-28T11:38:11.889Z,54.13
2019-02-28T11:40:43.608Z,48.27
2019-02-28T11:43:10.827Z,48.47
2019-02-28T11:45:43.058Z,51.90
2019-02-28T11:48:18.919Z,48.30
2019-02-28T11:50:45.093Z,56.70
2019-02-28T11:53:13.657Z,51.60
2019-02-28T11:55:42.235Z,54.60
2019-02-28T11:58:16.621Z,50.10
2019-02-28T12:00:41.195Z,52.37
2019-02-28T12:03:09.685Z,57.77
2019-02-28T12:05:38.099Z,56.20
2019-02-28T12:08:10.439Z,47.37
2019-02-28T12:10:38.351Z,48.13
2019-02-28T12:13:06.925Z,50.83
2019-02-28T12:15:39.173Z,53.13
2019-02-28T12:18:07.689Z,50.00
2019-02-28T12:20:36.249Z,50.60
2019-02-28T12:23:04.870Z,51.87
2019-02-28T12:25:33.392Z,48.43
2019-02-28T12:28:03.918Z,47.40
2019-02-28T12:30:33.835Z,50.60
2019-02-28T12:33:02.301Z,57.30
2019-02-28T12:35:37.450Z,54.60
2019-02-28T12:38:01.613Z,48.40
2019-02-28T12:40:36.135Z,48.10
2019-02-28T12:43:08.656Z,50.70
2019-02-28T12:45:45.555Z,52.10
2019-02-28T12:48:14.597Z,52.27
2019-02-28T12:50:43.497Z,50.63
2019-02-28T12:53:12.271Z,57.07
2019-02-28T12:55:41.803Z,54.47
2019-02-28T12:58:10.180Z,60.37
2019-02-28T13:00:45.720Z,58.87
2019-02-28T13:03:19.108Z,61.80
2019-02-28T13:05:48.052Z,70.40
2019-02-28T13:08:14.623Z,76.33
2019-02-28T13:10:43.181Z,92.23
2019-02-28T13:13:11.903Z,87.70
2019-02-28T13:15:40.317Z,85.90
2019-02-28T13:18:09.470Z,75.77
2019-02-28T13:20:39.215Z,77.20
2019-02-28T13:23:07.612Z,75.97
2019-02-28T13:25:36.244Z,86.43
2019-02-28T13:28:05.973Z,80.17
2019-02-28T13:30:34.510Z,76.00
2019-02-28T13:33:03.128Z,74.00
2019-02-28T13:35:36.565Z,82.10
2019-02-28T13:38:05.029Z,118.77
2019-02-28T13:40:33.692Z,112.60
2019-02-28T13:43:02.396Z,107.17
2019-02-28T13:45:31.084Z,107.33
2019-02-28T13:47:59.954Z,93.27
2019-02-28T13:50:32.886Z,88.50
2019-02-28T13:53:03.707Z,77.90
2019-02-28T13:55:31.825Z,79.30
2019-02-28T13:58:00.601Z,75.30
2019-02-28T14:00:31.141Z,65.60
2019-02-28T14:03:09.617Z,60.60
2019-02-28T14:05:40.479Z,68.17
2019-02-28T14:08:11.280Z,68.73
2019-02-28T14:10:38.133Z,76.10
2019-02-28T14:13:07.109Z,64.10
2019-02-28T14:15:41.346Z,61.33
2019-02-28T14:18:10.937Z,56.77
2019-02-28T14:20:40.132Z,55.97
2019-02-28T14:23:09.210Z,56.73
2019-02-28T14:25:39.829Z,69.93
2019-02-28T14:28:07.803Z,59.93
2019-02-28T14:30:36.496Z,66.00
2019-02-28T14:33:05.457Z,62.17
2019-02-28T14:35:35.698Z,60.10
2019-02-28T14:38:04.443Z,61.30
2019-02-28T14:40:33.035Z,66.93
2019-02-28T14:43:01.429Z,55.10
2019-02-28T14:45:39.001Z,50.23
2019-02-28T14:48:08.785Z,52.73
2019-02-28T14:50:37.365Z,51.63
2019-02-28T14:53:06.366Z,48.23
2019-02-28T14:55:34.753Z,40.40
2019-02-28T14:58:03.312Z,32.63
2019-02-28T15:00:35.277Z,35.57
2019-02-28T15:03:03.928Z,37.90
2019-02-28T15:05:35.413Z,32.00
2019-02-28T15:08:04.070Z,32.60
2019-02-28T15:10:34.183Z,38.13
2019-02-28T15:13:04.940Z,27.00
2019-02-28T15:15:35.936Z,28.63
2019-02-28T15:18:04.058Z,29.43
2019-02-28T15:20:33.155Z,26.30
2019-02-28T15:23:02.375Z,27.97
2019-02-28T15:25:31.714Z,28.40
2019-02-28T15:28:00.244Z,27.80
2019-02-28T15:30:33.651Z,26.30
2019-02-28T15:33:01.172Z,23.90
2019-02-28T15:35:29.557Z,29.07
2019-02-28T15:37:58.018Z,26.83
2019-02-28T15:40:41.313Z,27.40
2019-02-28T15:43:09.995Z,21.63
2019-02-28T15:45:38.393Z,25.17
2019-02-28T15:48:06.806Z,24.90
2019-02-28T15:50:35.198Z,28.73
2019-02-28T15:53:03.847Z,26.80
2019-02-28T15:55:35.094Z,22.40
2019-02-28T15:58:05.905Z,23.83
2019-02-28T16:00:34.259Z,25.43
2019-02-28T16:03:02.660Z,28.63
2019-02-28T16:05:31.031Z,26.73
2019-02-28T16:07:59.489Z,26.33
2019-02-28T16:10:33.013Z,27.30
2019-02-28T16:13:01.504Z,24.93
2019-02-28T16:15:29.895Z,21.60
2019-02-28T16:17:58.527Z,20.80
2019-02-28T16:20:28.488Z,21.20
2019-02-28T16:22:57.258Z,16.23
2019-02-28T16:25:28.937Z,21.60
2019-02-28T16:27:57.417Z,27.33
2019-02-28T16:30:28.828Z,23.70
2019-02-28T16:32:56.105Z,25.80
2019-02-28T16:35:24.852Z,20.03
2019-02-28T16:37:53.236Z,20.60
2019-02-28T16:40:27.172Z,19.73
2019-02-28T16:42:55.714Z,18.00
2019-02-28T16:45:30.154Z,22.17
2019-02-28T16:48:02.769Z,16.50
2019-02-28T16:50:29.715Z,18.93
2019-02-28T16:52:58.103Z,21.80
2019-02-28T16:55:27.453Z,18.00
2019-02-28T16:57:57.014Z,26.80
2019-02-28T17:00:26.973Z,23.40
2019-02-28T17:02:55.677Z,17.07
2019-02-28T17:05:28.113Z,18.23
2019-02-28T17:07:54.804Z,21.27
2019-02-28T17:10:28.291Z,16.13
2019-02-28T17:13:04.267Z,18.27
2019-02-28T17:15:43.089Z,20.73
2019-02-28T17:18:13.111Z,19.50
2019-02-28T17:20:41.763Z,19.37
2019-02-28T17:23:10.211Z,19.70
2019-02-28T17:25:38.598Z,22.03
2019-02-28T17:28:24.799Z,16.33
2019-02-28T17:31:00.780Z,17.93
2019-02-28T17:33:29.180Z,18.83
2019-02-28T17:35:57.583Z,15.43
2019-02-28T17:38:26.199Z,19.30
2019-02-28T17:40:54.607Z,20.87
2019-02-28T17:43:24.605Z,19.93
2019-02-28T17:45:53.149Z,25.83
2019-02-28T17:48:27.455Z,23.60
2019-02-28T17:51:05.024Z,22.57
2019-02-28T17:53:44.949Z,18.67
2019-02-28T17:56:23.991Z,24.63
2019-02-28T17:59:10.122Z,24.83
2019-02-28T18:01:44.479Z,19.93
2019-02-28T18:04:27.815Z,19.50
2019-02-28T18:07:11.100Z,21.77
2019-02-28T18:09:48.133Z,23.20
2019-02-28T18:12:24.242Z,25.17
2019-02-28T18:15:01.286Z,22.50
2019-02-28T18:17:38.571Z,23.73
2019-02-28T18:20:15.859Z,21.20
2019-02-28T18:22:52.033Z,21.77
2019-02-28T18:25:29.669Z,19.30
2019-02-28T18:28:04.175Z,18.57
2019-02-28T18:30:38.734Z,24.10
2019-02-28T18:33:10.247Z,21.87
2019-02-28T18:35:37.684Z,20.63
2019-02-28T18:38:06.088Z,20.90
2019-02-28T18:40:34.538Z,22.43
2019-02-28T18:43:02.928Z,17.97
2019-02-28T18:45:31.315Z,22.47
2019-02-28T18:47:59.716Z,22.13
2019-02-28T18:50:28.130Z,24.97
2019-02-28T18:52:56.522Z,20.33
2019-02-28T18:55:34.494Z,19.70
2019-02-28T18:57:55.027Z,22.90
2019-02-28T19:00:23.613Z,21.30
2019-02-28T19:02:52.233Z,21.23
2019-02-28T19:05:20.870Z,20.00
2019-02-28T19:07:49.332Z,20.23
2019-02-28T19:10:18.811Z,19.50
2019-02-28T19:12:47.568Z,20.00
2019-02-28T19:15:16.474Z,20.23
2019-02-28T19:17:44.865Z,20.43
2019-02-28T19:20:13.520Z,18.50
2019-02-28T19:22:41.989Z,23.23
2019-02-28T19:25:12.161Z,21.10
2019-02-28T19:27:40.551Z,20.23
2019-02-28T19:30:14.117Z,19.43
2019-02-28T19:32:42.601Z,25.97
2019-02-28T19:35:11.581Z,23.00
2019-02-28T19:37:40.374Z,23.70
2019-02-28T19:40:11.959Z,22.73
2019-02-28T19:42:40.612Z,27.77
2019-02-28T19:45:27.561Z,26.80
2019-02-28T19:47:56.414Z,25.03
2019-02-28T19:50:24.842Z,27.53
2019-02-28T19:52:54.197Z,28.90
2019-02-28T19:55:22.801Z,31.27
2019-02-28T19:57:51.196Z,28.73
2019-02-28T20:00:20.655Z,28.90
2019-02-28T20:02:49.370Z,31.17
2019-02-28T20:05:18.494Z,30.20
2019-02-28T20:07:46.975Z,29.20
2019-02-28T20:10:23.102Z,29.17
2019-02-28T20:12:51.602Z,27.40
2019-02-28T20:15:22.750Z,28.17
2019-02-28T20:17:51.213Z,27.47
2019-02-28T20:20:28.475Z,25.80
2019-02-28T20:22:56.951Z,28.60
2019-02-28T20:25:25.688Z,28.13
2019-02-28T20:27:54.166Z,29.67
2019-02-28T20:30:24.260Z,24.27
2019-02-28T20:32:53.264Z,27.37
2019-02-28T20:35:26.509Z,26.73
2019-02-28T20:37:52.191Z,28.40
2019-02-28T20:40:28.869Z,27.27
2019-02-28T20:42:57.294Z,29.47
2019-02-28T20:45:25.745Z,28.20
2019-02-28T20:47:54.134Z,28.47
2019-02-28T20:50:34.704Z,27.73
2019-02-28T20:53:03.141Z,32.23
2019-02-28T20:55:31.714Z,26.13
2019-02-28T20:58:00.387Z,24.77
2019-02-28T21:00:28.837Z,22.80
2019-02-28T21:02:57.340Z,24.30
2019-02-28T21:05:26.138Z,25.97
2019-02-28T21:07:56.512Z,25.90
2019-02-28T21:10:24.713Z,25.73
2019-02-28T21:12:53.432Z,26.27
2019-02-28T21:15:21.816Z,26.97
2019-02-28T21:17:50.349Z,28.43
2019-02-28T21:20:18.995Z,32.10
2019-02-28T21:22:47.524Z,28.53
2019-02-28T21:25:17.138Z,30.33
2019-02-28T21:27:45.539Z,30.67
2019-02-28T21:30:22.666Z,31.40
2019-02-28T21:32:51.445Z,33.40
2019-02-28T21:35:20.205Z,32.33
2019-02-28T21:37:49.383Z,33.13
2019-02-28T21:40:19.108Z,37.63
2019-02-28T21:42:47.496Z,34.47
2019-02-28T21:45:21.437Z,30.80
2019-02-28T21:47:49.866Z,27.63
2019-02-28T21:50:18.691Z,32.63
2019-02-28T21:52:47.171Z,28.43
2019-02-28T21:55:16.836Z,29.00
2019-02-28T21:57:45.564Z,27.60
2019-02-28T22:00:16.796Z,31.80
2019-02-28T22:02:45.210Z,29.00
2019-02-28T22:05:14.232Z,28.50
2019-02-28T22:07:44.495Z,27.40
2019-02-28T22:10:14.590Z,25.33
2019-02-28T22:12:43.295Z,25.60
2019-02-28T22:15:17.176Z,25.17
2019-02-28T22:17:45.920Z,24.10
2019-02-28T22:20:15.163Z,23.97
2019-02-28T22:22:43.909Z,23.90
2019-02-28T22:25:14.131Z,26.87
2019-02-28T22:27:42.587Z,23.93
2019-02-28T22:30:32.053Z,23.50
2019-02-28T22:33:05.110Z,23.23
2019-02-28T22:35:35.129Z,23.37
2019-02-28T22:38:03.638Z,21.73
2019-02-28T22:40:32.437Z,22.83
2019-02-28T22:43:00.868Z,21.97
2019-02-28T22:45:29.277Z,20.67
2019-02-28T22:47:57.663Z,19.60
2019-02-28T22:50:26.069Z,19.70
2019-02-28T22:52:54.839Z,22.13
2019-02-28T22:55:23.709Z,20.70
2019-02-28T22:57:52.107Z,20.17
2019-02-28T23:00:24.614Z,18.37
2019-02-28T23:02:53.374Z,19.00
2019-02-28T23:05:21.775Z,18.30
2019-02-28T23:07:50.182Z,17.43
2019-02-28T23:10:18.570Z,18.10
2019-02-28T23:12:47.063Z,18.13
2019-02-28T23:15:15.460Z,16.97
2019-02-28T23:17:44.156Z,18.27
2019-02-28T23:20:12.705Z,16.50
2019-02-28T23:22:41.254Z,17.00
2019-02-28T23:25:09.779Z,16.07
2019-02-28T23:27:38.180Z,16.70
2019-02-28T23:30:29.023Z,16.03
2019-02-28T23:33:00.475Z,15.00
2019-02-28T23:35:32.100Z,14.90
2019-02-28T23:38:00.490Z,15.03
2019-02-28T23:40:29.168Z,15.13
2019-02-28T23:42:57.559Z,16.57
2019-02-28T23:45:26.006Z,16.30
2019-02-28T23:47:54.445Z,18.00
2019-02-28T23:50:22.828Z,16.73
2019-02-28T23:52:51.213Z,18.80
2019-02-28T23:55:19.950Z,17.50
2019-02-28T23:57:48.409Z,16.90
